createdAt,value
2019-05-10T00:02:48.277Z,14.90
2019-05-10T00:07:10.744Z,14.97
2019-05-10T00:11:28.389Z,14.97
2019-05-10T00:15:34.391Z,13.47
2019-05-10T00:19:39.132Z,10.37
2019-05-10T00:23:43.688Z,14.73
2019-05-10T00:27:48.343Z,10.10
2019-05-10T00:31:52.982Z,13.63
2019-05-10T00:35:57.526Z,18.93
2019-05-10T00:40:02.211Z,13.57
2019-05-10T00:44:06.960Z,16.23
2019-05-10T00:48:11.494Z,18.23
2019-05-10T00:52:16.146Z,13.93
2019-05-10T00:56:20.676Z,10.27
2019-05-10T01:00:25.202Z,15.27
2019-05-10T01:04:29.826Z,13.40
2019-05-10T01:08:34.463Z,20.57
2019-05-10T01:12:39.078Z,12.17
2019-05-10T01:16:43.726Z,12.60
2019-05-10T01:20:48.361Z,12.17
2019-05-10T01:24:52.918Z,10.90
2019-05-10T01:28:57.580Z,13.13
2019-05-10T01:33:02.251Z,10.13
2019-05-10T01:37:06.821Z,12.20
2019-05-10T01:41:11.453Z,10.13
2019-05-10T01:45:16.130Z,9.37
2019-05-10T01:49:20.721Z,11.83
2019-05-10T01:53:25.323Z,17.07
2019-05-10T01:57:29.864Z,10.50
2019-05-10T02:01:34.405Z,9.37
2019-05-10T02:05:39.071Z,14.00
2019-05-10T02:09:43.860Z,14.37
2019-05-10T02:13:48.606Z,10.70
2019-05-10T02:17:53.148Z,12.90
2019-05-10T02:21:57.722Z,13.70
2019-05-10T02:26:09.384Z,10.50
2019-05-10T02:30:09.228Z,9.60
2019-05-10T02:34:13.800Z,8.27
2019-05-10T02:38:18.427Z,13.43
2019-05-10T02:42:22.962Z,8.63
2019-05-10T02:46:27.469Z,8.83
2019-05-10T02:50:32.087Z,10.00
2019-05-10T02:54:36.831Z,17.60
2019-05-10T02:58:43.098Z,12.20
2019-05-10T03:02:48.343Z,9.63
2019-05-10T03:06:55.944Z,13.17
2019-05-10T03:11:00.625Z,12.03
2019-05-10T03:15:05.783Z,12.50
2019-05-10T03:19:12.451Z,16.77
2019-05-10T03:23:18.012Z,15.80
2019-05-10T03:27:22.614Z,11.47
2019-05-10T03:31:27.281Z,18.33
2019-05-10T03:35:32.248Z,14.53
2019-05-10T03:39:37.053Z,14.20
2019-05-10T03:43:41.583Z,14.27
2019-05-10T03:47:46.235Z,11.43
2019-05-10T03:51:50.912Z,17.90
2019-05-10T03:55:55.444Z,16.00
2019-05-10T03:59:59.971Z,14.87
2019-05-10T04:04:08.896Z,19.63
2019-05-10T04:08:10.735Z,17.60
2019-05-10T04:12:15.364Z,17.23
2019-05-10T04:16:19.904Z,16.60
2019-05-10T04:20:24.463Z,20.23
2019-05-10T04:24:29.096Z,16.97
2019-05-10T04:28:33.627Z,17.67
2019-05-10T04:32:38.271Z,19.37
2019-05-10T04:36:42.915Z,17.43
2019-05-10T04:40:47.598Z,18.40
2019-05-10T04:44:53.370Z,23.17
2019-05-10T04:48:58.744Z,19.13
2019-05-10T04:53:03.386Z,20.00
2019-05-10T04:57:07.929Z,20.67
2019-05-10T05:01:12.680Z,19.63
2019-05-10T05:05:17.471Z,21.33
2019-05-10T05:09:21.978Z,18.87
2019-05-10T05:13:26.571Z,17.53
2019-05-10T05:17:31.147Z,24.77
2019-05-10T05:21:35.715Z,21.03
2019-05-10T05:25:41.808Z,24.83
2019-05-10T05:29:46.523Z,22.43
2019-05-10T05:33:51.108Z,20.70
2019-05-10T05:37:55.802Z,27.17
2019-05-10T05:42:00.391Z,18.93
2019-05-10T05:46:05.012Z,21.80
2019-05-10T05:50:10.126Z,20.77
2019-05-10T05:54:19.808Z,20.83
2019-05-10T05:58:26.835Z,25.30
2019-05-10T06:02:27.527Z,22.57
2019-05-10T06:06:32.148Z,24.80
2019-05-10T06:10:36.798Z,25.63
2019-05-10T06:14:43.342Z,31.83
2019-05-10T06:18:48.880Z,26.53
2019-05-10T06:23:05.614Z,24.57
2019-05-10T06:27:03.383Z,22.90
2019-05-10T06:31:06.634Z,29.73
2019-05-10T06:35:14.019Z,23.77
2019-05-10T06:39:17.707Z,24.43
2019-05-10T06:43:22.250Z,21.83
2019-05-10T06:47:26.866Z,27.43
2019-05-10T06:51:31.392Z,22.80
2019-05-10T06:55:35.942Z,23.37
2019-05-10T06:59:40.483Z,25.27
2019-05-10T07:03:45.031Z,21.77
2019-05-10T07:07:49.556Z,22.00
2019-05-10T07:11:54.099Z,27.27
2019-05-10T07:15:58.663Z,24.73
2019-05-10T07:20:04.961Z,17.27
2019-05-10T07:24:09.526Z,20.33
2019-05-10T07:28:16.008Z,21.83
2019-05-10T07:32:22.282Z,19.03
2019-05-10T07:36:29.579Z,18.90
2019-05-10T07:40:32.929Z,23.70
2019-05-10T07:44:41.379Z,20.27
2019-05-10T07:48:47.337Z,22.00
2019-05-10T07:52:50.196Z,18.13
2019-05-10T07:56:54.851Z,23.07
2019-05-10T08:00:59.530Z,21.33
2019-05-10T08:05:11.017Z,20.00
2019-05-10T08:09:11.734Z,20.40
2019-05-10T08:13:23.298Z,25.07
2019-05-10T08:17:22.691Z,22.30
2019-05-10T08:21:27.207Z,19.20
2019-05-10T08:25:36.385Z,20.03
2019-05-10T08:29:38.260Z,19.80
2019-05-10T08:33:44.210Z,22.60
2019-05-10T08:37:49.213Z,12.57
2019-05-10T08:42:04.115Z,10.83
2019-05-10T08:46:02.499Z,12.60
2019-05-10T08:50:20.561Z,10.53
2019-05-10T08:54:14.567Z,8.83
2019-05-10T08:58:21.657Z,9.97
2019-05-10T09:02:29.333Z,11.67
2019-05-10T09:06:32.751Z,13.03
2019-05-10T09:10:37.580Z,11.87
2019-05-10T09:14:42.683Z,13.43
2019-05-10T09:18:51.185Z,14.03
2019-05-10T09:22:53.817Z,14.30
2019-05-10T09:26:58.368Z,11.17
2019-05-10T09:31:17.339Z,13.20
2019-05-10T09:35:09.469Z,12.83
2019-05-10T09:39:17.769Z,12.93
2019-05-10T09:43:23.561Z,12.00
2019-05-10T09:47:26.504Z,10.80
2019-05-10T09:51:33.168Z,11.47
2019-05-10T09:55:37.336Z,10.37
2019-05-10T09:59:41.867Z,7.30
2019-05-10T10:03:47.672Z,8.30
2019-05-10T10:07:52.480Z,9.43
2019-05-10T10:12:01.058Z,7.93
2019-05-10T10:16:04.182Z,8.07
2019-05-10T10:20:09.724Z,7.70
2019-05-10T10:24:17.380Z,11.70
2019-05-10T10:28:22.574Z,7.93
2019-05-10T10:32:31.359Z,8.57
2019-05-10T10:36:33.079Z,9.10
2019-05-10T10:40:44.085Z,8.80
2019-05-10T10:44:44.068Z,7.47
2019-05-10T10:48:51.041Z,13.70
2019-05-10T10:52:54.921Z,10.57
2019-05-10T10:56:59.707Z,11.33
2019-05-10T11:01:10.853Z,13.43
2019-05-10T11:05:11.212Z,15.80
2019-05-10T11:09:15.751Z,15.63
2019-05-10T11:13:39.889Z,14.63
2019-05-10T11:17:26.853Z,16.03
2019-05-10T11:21:33.405Z,13.67
2019-05-10T11:25:42.760Z,12.30
2019-05-10T11:29:44.486Z,12.40
2019-05-10T11:33:53.813Z,17.70
2019-05-10T11:37:55.272Z,20.27
2019-05-10T11:42:05.196Z,13.77
2019-05-10T11:46:06.276Z,16.63
2019-05-10T11:50:27.773Z,14.60
2019-05-10T11:54:21.394Z,66.93
2019-05-10T11:58:25.484Z,28.07
2019-05-10T12:02:42.502Z,16.40
2019-05-10T12:06:41.140Z,15.07
2019-05-10T12:10:53.039Z,14.57
2019-05-10T12:14:48.985Z,11.53
2019-05-10T12:19:06.616Z,18.37
2019-05-10T12:23:03.397Z,29.60
2019-05-10T12:27:14.382Z,19.50
2019-05-10T12:31:16.050Z,15.07
2019-05-10T12:35:21.065Z,10.20
2019-05-10T12:39:25.220Z,9.13
2019-05-10T12:43:30.944Z,9.47
2019-05-10T12:47:35.799Z,9.47
2019-05-10T12:51:40.895Z,8.87
2019-05-10T12:55:46.731Z,8.67
2019-05-10T12:59:51.374Z,11.27
2019-05-10T13:03:56.107Z,5.87
2019-05-10T13:08:00.742Z,9.87
2019-05-10T13:12:06.318Z,6.77
2019-05-10T13:16:12.006Z,5.60
2019-05-10T13:20:17.352Z,5.77
2019-05-10T13:24:21.901Z,4.80
2019-05-10T13:28:26.424Z,3.63
2019-05-10T13:32:30.985Z,4.70
2019-05-10T13:36:37.242Z,4.20
2019-05-10T13:40:45.564Z,5.53
2019-05-10T13:44:48.212Z,5.20
2019-05-10T13:48:52.864Z,4.57
2019-05-10T13:52:57.451Z,5.87
2019-05-10T13:57:02.280Z,8.30
2019-05-10T14:01:12.861Z,5.23
2019-05-10T14:05:17.607Z,7.93
2019-05-10T14:09:21.099Z,6.87
2019-05-10T14:13:25.866Z,7.17
2019-05-10T14:17:30.595Z,6.83
2019-05-10T14:21:35.200Z,6.77
2019-05-10T14:25:39.806Z,6.53
2019-05-10T14:29:44.406Z,7.87
2019-05-10T14:34:14.173Z,11.63
2019-05-10T14:38:06.960Z,9.57
2019-05-10T14:42:02.043Z,7.60
2019-05-10T14:46:13.502Z,8.43
2019-05-10T14:50:19.256Z,9.37
2019-05-10T14:54:20.236Z,7.60
2019-05-10T14:58:24.892Z,8.87
2019-05-10T15:02:29.610Z,9.37
2019-05-10T15:06:36.806Z,7.77
2019-05-10T15:10:41.841Z,6.17
2019-05-10T15:14:46.571Z,13.23
2019-05-10T15:18:51.222Z,21.60
2019-05-10T15:22:56.017Z,15.93
2019-05-10T15:27:00.513Z,9.03
2019-05-10T15:31:05.223Z,11.80
2019-05-10T15:35:10.011Z,11.97
2019-05-10T15:39:14.648Z,25.43
2019-05-10T15:43:19.314Z,14.63
2019-05-10T15:47:23.958Z,14.93
2019-05-10T15:51:36.205Z,32.53
2019-05-10T15:55:35.060Z,25.13
2019-05-10T15:59:39.786Z,51.93
2019-05-10T16:03:44.355Z,9.77
2019-05-10T16:07:51.497Z,14.03
2019-05-10T16:11:56.224Z,16.73
2019-05-10T16:16:01.546Z,14.60
2019-05-10T16:20:06.394Z,11.90
2019-05-10T16:24:13.529Z,11.33
2019-05-10T16:28:20.657Z,10.03
2019-05-10T16:32:29.254Z,15.67
2019-05-10T16:36:30.193Z,12.73
2019-05-10T16:40:34.847Z,21.17
2019-05-10T16:44:39.379Z,16.90
2019-05-10T16:48:43.936Z,20.20
2019-05-10T16:52:48.632Z,25.03
2019-05-10T16:56:59.390Z,32.97
2019-05-10T17:00:59.716Z,24.43
2019-05-10T17:05:09.695Z,20.57
2019-05-10T17:09:18.338Z,23.87
2019-05-10T17:13:18.987Z,27.60
2019-05-10T17:17:23.617Z,25.33
2019-05-10T17:21:28.148Z,17.67
2019-05-10T17:25:35.524Z,11.93
2019-05-10T17:29:39.361Z,12.90
2019-05-10T17:33:44.334Z,24.97
2019-05-10T17:37:52.527Z,21.47
2019-05-10T17:41:57.710Z,26.97
2019-05-10T17:46:01.787Z,14.30
2019-05-10T17:50:08.404Z,15.63
2019-05-10T17:54:12.966Z,13.47
2019-05-10T17:58:17.673Z,24.23
2019-05-10T18:02:22.240Z,23.80
2019-05-10T18:06:27.021Z,15.77
2019-05-10T18:10:31.647Z,17.17
2019-05-10T18:14:36.265Z,16.13
2019-05-10T18:18:46.298Z,22.50
2019-05-10T18:22:47.178Z,23.23
2019-05-10T18:26:51.703Z,18.67
2019-05-10T18:30:56.268Z,15.30
2019-05-10T18:35:00.898Z,17.10
2019-05-10T18:39:09.249Z,13.37
2019-05-10T18:43:13.799Z,14.83
2019-05-10T18:47:18.346Z,17.53
2019-05-10T18:51:24.509Z,22.63
2019-05-10T18:55:29.160Z,18.33
2019-05-10T18:59:33.724Z,16.73
2019-05-10T19:03:38.409Z,14.13
2019-05-10T19:07:42.997Z,15.37
2019-05-10T19:11:47.711Z,18.10
2019-05-10T19:15:56.236Z,18.50
2019-05-10T19:19:58.677Z,18.23
2019-05-10T19:24:03.293Z,19.97
2019-05-10T19:28:07.965Z,21.73
2019-05-10T19:32:18.223Z,18.57
2019-05-10T19:36:18.931Z,21.13
2019-05-10T19:40:23.690Z,18.37
2019-05-10T19:44:28.446Z,20.30
2019-05-10T19:48:35.257Z,31.37
2019-05-10T19:52:39.294Z,34.07
2019-05-10T19:56:43.840Z,27.83
2019-05-10T20:00:48.515Z,23.40
2019-05-10T20:04:53.129Z,25.27
2019-05-10T20:08:57.677Z,30.13
2019-05-10T20:13:02.395Z,22.60
2019-05-10T20:17:07.048Z,24.20
2019-05-10T20:21:11.762Z,20.80
2019-05-10T20:25:16.494Z,20.50
2019-05-10T20:29:20.954Z,21.33
2019-05-10T20:33:25.609Z,26.20
2019-05-10T20:37:30.120Z,25.33
2019-05-10T20:41:34.684Z,28.83
2019-05-10T20:45:39.186Z,33.33
2019-05-10T20:49:43.840Z,30.27
2019-05-10T20:53:48.429Z,20.67
2019-05-10T20:57:53.094Z,18.93
2019-05-10T21:01:57.759Z,23.13
2019-05-10T21:06:02.587Z,17.87
2019-05-10T21:10:08.245Z,22.77
2019-05-10T21:14:12.778Z,24.23
2019-05-10T21:18:17.327Z,26.77
2019-05-10T21:22:21.928Z,22.67
2019-05-10T21:26:26.484Z,20.37
2019-05-10T21:30:31.043Z,25.37
2019-05-10T21:34:35.738Z,23.70
2019-05-10T21:38:41.776Z,29.87
2019-05-10T21:42:46.697Z,19.50
2019-05-10T21:46:53.652Z,20.63
2019-05-10T21:50:57.784Z,20.63
2019-05-10T21:55:02.487Z,22.13
2019-05-10T21:59:07.203Z,20.13
2019-05-10T22:03:11.725Z,26.20
2019-05-10T22:07:16.284Z,24.27
2019-05-10T22:11:20.881Z,24.73
2019-05-10T22:15:25.425Z,27.53
2019-05-10T22:19:30.077Z,24.47
2019-05-10T22:23:34.624Z,23.43
2019-05-10T22:27:39.196Z,28.53
2019-05-10T22:31:43.742Z,21.97
2019-05-10T22:35:48.374Z,21.97
2019-05-10T22:39:52.915Z,26.57
2019-05-10T22:43:57.519Z,30.63
2019-05-10T22:48:02.148Z,28.43
2019-05-10T22:52:06.711Z,24.03
2019-05-10T22:56:11.356Z,27.60
2019-05-10T23:00:16.783Z,24.13
2019-05-10T23:04:21.439Z,26.93
2019-05-10T23:08:26.008Z,21.13
2019-05-10T23:12:30.790Z,25.20
2019-05-10T23:16:35.493Z,26.13
2019-05-10T23:20:40.219Z,27.27
2019-05-10T23:24:44.913Z,25.63
2019-05-10T23:28:49.563Z,30.57
2019-05-10T23:32:54.272Z,24.47
2019-05-10T23:36:58.985Z,25.23
2019-05-10T23:41:03.639Z,23.63
2019-05-10T23:45:08.800Z,25.03
2019-05-10T23:49:13.341Z,22.37
2019-05-10T23:53:17.906Z,23.80
2019-05-10T23:57:22.519Z,21.77
